2018 MXGP Results: RUSSIA

MXGP

Pos Nr Rider Nat. Fed. Bike Time laps Diff. First Diff. Prev. Bestlaptime in lap Speed
1 84 Herlings, Jeffrey NED KNMV KTM 33:53.627 20 0:00.000 0:00.000 1:40.295 5 54
2 25 Desalle, Clement BEL FMB Kawasaki 33:58.693 20 0:05.066 0:05.066 1:40.217 14 54.1
3 461 Febvre, Romain FRA FFM Yamaha 34:08.725 20 0:15.098 0:10.032 1:40.355 7 54
4 243 Gajser, Tim SLO AMZS Honda 34:11.085 20 0:17.458 0:02.360 1:40.714 14 53.8
5 222 Cairoli, Antonio ITA FMI KTM 34:12.803 20 0:19.176 0:01.718 1:40.615 10 53.9
6 21 Paulin, Gautier FRA MCM Husqvarna 34:14.539 20 0:20.912 0:01.736 1:40.778 6 53.8
7 33 Lieber, Julien BEL FMB Kawasaki 34:35.495 20 0:41.868 0:20.956 1:41.618 9 53.3
8 91 Seewer, Jeremy SUI FMS Yamaha 34:40.667 20 0:47.040 0:05.172 1:41.471 7 53.4
9 259 Coldenhoff, Glenn NED KNMV KTM 34:43.297 20 0:49.670 0:02.630 1:42.226 12 53
10 12 Nagl, Maximilian GER DMSB TM 34:44.398 20 0:50.771 0:01.101 1:42.559 10 52.8
11 77 Lupino, Alessandro ITA FMI Kawasaki 34:45.111 20 0:51.484 0:00.713 1:42.631 12 52.8
12 6 Paturel, Benoit FRA FFM KTM 34:46.749 20 0:53.122 0:01.638 1:42.597 13 52.8
13 27 Jasikonis, Arminas LTU LMSF Honda 35:06.512 20 1:12.885 0:19.763 1:42.801 7 52.7
14 777 Bobryshev, Evgeny RUS MFR Suzuki 35:09.675 20 1:16.048 0:03.163 1:43.455 5 52.4
15 128 Monticelli, Ivo ITA FMI Yamaha 35:12.454 20 1:18.827 0:02.779 1:43.180 5 52.5
16 17 Butron, Jose ESP RFME KTM 35:14.542 20 1:20.915 0:02.088 1:43.319 19 52.5
17 99 Anstie, Max GBR ACU Husqvarna 35:19.280 20 1:25.653 0:04.738 1:43.499 9 52.4
18 89 Van Horebeek, Jeremy BEL FMB Yamaha 35:24.058 20 1:30.431 0:04.778 1:42.506 12 52.9
19 22 Strijbos, Kevin BEL FMB KTM 34:16.259 19 1 lap 1 lap 1:44.084 9 52.1
20 141 Desprey, Maxime FRA FFM Kawasaki 34:19.226 19 1 lap 0:02.967 1:45.441 6 51.4
21 7 Leok, Tanel EST EMF Husqvarna 34:23.171 19 1 lap 0:03.945 1:45.061 12 51.6
22 411 Kahro, Erki EST EMF KTM 35:21.739 19 1 lap 0:58.568 1:47.973 7 50.2
23 55 Irwin, Graeme GBR MCUI KTM 27:17.809 15 5 laps 4 laps 1:45.055 8 51.6
24 152 Petrov, Petar BUL BMF Honda 24:56.550 14 6 laps 1 lap 1:43.801 12 52.2
25 93 Bengtsson, Jonathan SWE SVEMO KTM 17:15.072 9 11 laps 5 laps 1:49.527 3 49.5

 

MX2

Pos Nr Rider Nat. Fed. Bike Time laps Diff. First Diff. Prev. Bestlaptime in lap Speed
1 1 Jonass, Pauls LAT LAMSF KTM 34:38.909 20 0:00.000 0:00.000 1:42.226 13 53
2 61 Prado, Jorge ESP RFME KTM 34:40.539 20 0:01.630 0:01.630 1:42.232 11 53
3 747 Cervellin, Michele ITA FMI Honda 35:18.620 20 0:39.711 0:38.081 1:44.246 16 52
4 10 Vlaanderen, Calvin RSA KNMV Honda 35:19.509 20 0:40.600 0:00.889 1:43.902 16 52.2
5 19 Olsen, Thomas Kjer DEN DMU Husqvarna 35:20.490 20 0:41.581 0:00.981 1:44.111 18 52.1
6 919 Watson, Ben GBR ACU Yamaha 35:22.349 20 0:43.440 0:01.859 1:44.055 16 52.1
7 14 Beaton, Jed AUS MA Kawasaki 35:44.948 20 1:06.039 0:22.599 1:44.993 12 51.6
8 118 Rubini, Stephen FRA FFM KTM 35:51.531 20 1:12.622 0:06.583 1:44.335 19 51.9
9 193 Geerts, Jago BEL FMB Yamaha 35:54.605 20 1:15.696 0:03.074 1:45.016 16 51.6
10 172 Van doninck, Brent BEL FMB Husqvarna 35:59.785 20 1:20.876 0:05.180 1:45.199 17 51.5
11 66 Larranaga Olano, Iker ESP RFME Husqvarna 36:01.813 20 1:22.904 0:02.028 1:45.726 14 51.3
12 811 Sterry, Adam GBR ACU Kawasaki 36:03.601 20 1:24.692 0:01.788 1:45.294 11 51.5
13 29 Jacobi, Henry GER DMSB Husqvarna 36:05.561 20 1:26.652 0:01.960 1:44.771 20 51.7
14 64 Covington, Thomas USA MUL Husqvarna 36:13.864 20 1:34.955 0:08.303 1:45.277 16 51.5
15 46 Pootjes, Davy NED KNMV KTM 36:18.552 20 1:39.643 0:04.688 1:45.651 17 51.3
16 321 Bernardini, Samuele ITA FMI TM 35:02.106 19 1 lap 1 lap 1:47.362 5 50.5
17 161 Östlund, Alvin SWE SVEMO Yamaha 35:04.108 19 1 lap 0:02.002 1:46.776 19 50.8
18 338 Herbreteau, David FRA FFM KTM 35:04.499 19 1 lap 0:00.391 1:47.686 14 50.3
19 426 Mewse, Conrad GBR ACU KTM 35:09.648 19 1 lap 0:05.149 1:46.762 16 50.8
20 44 Lesiardo, Morgan ITA FMI KTM 35:28.647 19 1 lap 0:18.999 1:48.068 16 50.2
21 50 Kurashev, Sergey RUS MFR KTM 35:48.542 12 8 laps 7 laps 1:58.365 3 45.8
22 18 Brylyakov, Vsevolod RUS MFR Yamaha 16:58.513 9 11 laps 3 laps 1:44.924 6 51.7
23 95 Furlotti, Simone ITA FMI Yamaha 5:20.787 1 19 laps 8 laps 5:06.353 1 17.7

 

EMX250

Pos Nr Rider Nat. Fed. Bike Time laps Diff. First Diff. Prev. Bestlaptime in lap Speed
1 511 Clarke, Steven GBR ACU Honda 29:51.405 17 0:00.000 0:00.000 1:42.867 4 52.7
2 211 Lapucci, Nicholas ITA FMI Yamaha 29:53.384 17 0:01.979 0:01.979 1:43.452 4 52.4
3 959 Renaux, Maxime FRA FFM Yamaha 29:55.485 17 0:04.080 0:02.101 1:43.800 8 52.2
4 53 Walsh, Dylan NZL MNZ Husqvarna 29:56.443 17 0:05.038 0:00.958 1:42.947 5 52.6
5 303 Forato, Alberto ITA FMI Honda 30:02.196 17 0:10.791 0:05.753 1:43.634 8 52.3
6 119 Pocock, Mel GBR ACU Husqvarna 30:07.974 17 0:16.569 0:05.778 1:43.147 8 52.5
7 50 Barr, Martin GBR MCUI Husqvarna 30:08.726 17 0:17.321 0:00.752 1:43.854 5 52.2
8 225 Strubhart Moreau, Brian FRA FFM Kawasaki 30:13.726 17 0:22.321 0:05.000 1:44.018 3 52.1
9 39 Van De Moosdijk, Roan NED KNMV Yamaha 30:18.808 17 0:27.403 0:05.082 1:43.913 8 52.2
10 11 Haarup, Mikkel DEN DMU Husqvarna 30:20.393 17 0:28.988 0:01.585 1:44.179 4 52
11 16 Sabulis, Karlis LAT LAMSF Yamaha 30:24.864 17 0:33.459 0:04.471 1:45.034 8 51.6
12 22 Facchetti, Gianluca ITA FMI KTM 30:29.787 17 0:38.382 0:04.923 1:44.193 7 52
13 172 Boisrame, Mathys FRA FFM Honda 30:31.970 17 0:40.565 0:02.183 1:43.930 6 52.2
14 2 Dunn, James GBR ACU KTM 30:36.428 17 0:45.023 0:04.458 1:45.561 16 51.3
15 132 Kutsar, Karel EST EMF KTM 30:37.258 17 0:45.853 0:00.830 1:44.916 3 51.7
16 128 Vialle, Tom FRA FFM Husqvarna 30:41.018 17 0:49.613 0:03.760 1:44.685 6 51.8
17 104 Sydow, Jeremy GER DMSB KTM 30:42.501 17 0:51.096 0:01.483 1:44.971 7 51.6
18 637 Sileika, Tomass LAT LAMSF KTM 30:44.640 17 0:53.235 0:02.139 1:44.257 3 52
19 24 Horgmo, Kevin NOR NMF KTM 30:45.526 17 0:54.121 0:00.886 1:45.595 6 51.3
20 88 van der Vlist, Freek NED KNMV Honda 30:46.034 17 0:54.629 0:00.508 1:45.445 7 51.4
21 43 Bres, Natanael FRA FFM KTM 30:51.701 17 1:00.296 0:05.667 1:45.111 7 51.6
22 8 Kratzer, Michael AUT AMF Kawasaki 30:59.996 17 1:08.591 0:08.295 1:45.607 5 51.3
23 51 Malaval, Adrien FRA FFM Husqvarna 31:02.577 17 1:11.172 0:02.581 1:46.176 7 51
24 223 Tropepe, Giuseppe ITA FMI Yamaha 31:06.071 17 1:14.666 0:03.494 1:46.287 6 51
25 761 Prytov, Sergey RUS MFR Yamaha 31:09.818 17 1:18.413 0:03.747 1:46.865 3 50.7
26 730 Petrashin, Timur RUS MFR KTM 31:16.539 17 1:25.134 0:06.721 1:47.381 7 50.5
27 701 Pronenko, Svyatoslav RUS MFR Husqvarna 31:31.957 17 1:40.552 0:15.418 1:47.859 3 50.2
28 700 Ryzhikh, Ilya RUS MFR Yamaha 31:35.026 17 1:43.621 0:03.069 1:48.764 8 49.8
29 98 Kellett, Todd GBR ACU KTM 29:05.390 16 1 lap 1 lap 1:46.293 8 51
30 100 Verhaeghe, Scotty FRA FFM KTM 30:18.613 16 1 lap 1:13.223 1:48.303 3 50
31 370 Bessonov, Andrey RUS MFR Kawasaki 30:19.937 16 1 lap 0:01.324 1:49.767 5 49.4
32 500 Fedorov, Aleksander RUS MFR KTM 30:28.463 16 1 lap 0:08.526 1:50.146 8 49.2
33 69 Myatlin, Stanislav RUS MFR Yamaha 30:36.414 16 1 lap 0:07.951 1:50.687 8 49
34 71 Shashkov, Daniil RUS MFR KTM 29:57.722 15 2 laps 1 lap 1:54.208 2 47.5
35 28 Ilyukhin, Ilya RUS MFR KTM 31:36.834 15 2 laps 1:39.112 1:54.601 2 47.3
36 91 Khodyrev, Victor RUS MFR KTM 31:49.260 15 2 laps 0:12.426 1:59.807 3 45.2
37 41 Grothues, Caleb AUS MA Husqvarna 27:00.839 14 3 laps 1 lap 1:45.813 3 51.2
38 720 Goupillon, Pierre FRA FFM Kawasaki 9:29.374 5 12 laps 9 laps 1:45.358 3 51.4

 

EMX300

Pos Nr Rider Nat. Fed. Bike Time laps Diff. First Diff. Prev. Bestlaptime in lap Speed
1 1 Anderson, Brad GBR ACU KTM 29:08.297 16 0:00.000 0:00.000 1:47.052 13 50.6
2 55 Kras, Mike NED KNMV KTM 29:18.864 16 0:10.567 0:10.567 1:47.272 9 50.5
3 101 Kovar, Vaclav CZE ACCR Gas Gas 29:25.006 16 0:16.709 0:06.142 1:48.221 14 50.1
4 62 Lusbo, Andero EST EMF Husqvarna 29:32.636 16 0:24.339 0:07.630 1:48.162 11 50.1
5 98 Willems, Erik BEL FMB Husqvarna 29:35.099 16 0:26.802 0:02.463 1:48.639 13 49.9
6 371 Iacopi, Manuel ITA FMI Yamaha 29:57.965 16 0:49.668 0:22.866 1:48.370 16 50
7 53 Smets, Greg BEL FMB KTM 30:00.155 16 0:51.858 0:02.190 1:48.699 16 49.9
8 133 Lopatin, Ignatii RUS MFR KTM 30:10.597 16 1:02.300 0:10.442 1:50.582 9 49
9 311 Nespor, Marek CZE ACCR KTM 29:27.355 15 1 lap 1 lap 1:54.009 14 47.5
10 147 Geyskens, Justin BEL FMB KTM 29:28.538 15 1 lap 0:01.183 1:55.203 5 47
11 155 Kornev, Nikolay RUS MFR KTM 29:39.866 15 1 lap 0:11.328 1:53.004 7 48
12 172 Holyoake, Robert GBR ACU Husqvarna 29:54.688 15 1 lap 0:14.822 1:56.464 4 46.5
13 531 Galligari, Francesco ITA FMI KTM 30:38.491 14 2 laps 1 lap 2:03.262 14 44
14 142 Lukash, Iurii RUS MFR Honda 30:40.454 14 2 laps 0:01.963 2:04.149 14 43.6

Credit: MXGP